createdAt,value
2019-01-30T00:00:44.710Z,935.9
2019-01-30T00:03:50.818Z,935.8
2019-01-30T00:06:56.736Z,935.8
2019-01-30T00:10:02.735Z,935.7
2019-01-30T00:13:08.767Z,935.7
2019-01-30T00:16:14.638Z,935.7
2019-01-30T00:19:20.621Z,935.7
2019-01-30T00:22:26.491Z,935.8
2019-01-30T00:25:32.481Z,935.7
2019-01-30T00:28:38.360Z,935.7
2019-01-30T00:31:44.353Z,935.7
2019-01-30T00:34:50.234Z,935.6
2019-01-30T00:37:58.333Z,935.6
2019-01-30T00:41:04.443Z,935.6
2019-01-30T00:44:13.078Z,935.4
2019-01-30T00:47:19.016Z,935.6
2019-01-30T00:50:24.899Z,935.4
2019-01-30T00:53:30.937Z,935.3
2019-01-30T00:56:36.890Z,935.3
2019-01-30T00:59:42.853Z,935.3
2019-01-30T01:02:48.742Z,935.4
2019-01-30T01:05:55.006Z,935.3
2019-01-30T01:09:00.867Z,935.4
2019-01-30T01:12:06.796Z,935.2
2019-01-30T01:15:12.706Z,935.3
2019-01-30T01:18:18.580Z,935.2
2019-01-30T01:21:26.996Z,935.1
2019-01-30T01:24:33.171Z,935
2019-01-30T01:27:39.202Z,934.9
2019-01-30T01:30:48.282Z,934.9
2019-01-30T01:33:54.242Z,934.9
2019-01-30T01:37:00.203Z,934.9
2019-01-30T01:40:06.164Z,934.9
2019-01-30T01:43:12.102Z,934.9
2019-01-30T01:46:18.184Z,934.9
2019-01-30T01:49:24.101Z,934.9
2019-01-30T01:52:30.223Z,934.9
2019-01-30T01:55:36.119Z,934.9
2019-01-30T01:58:42.017Z,934.8
2019-01-30T02:01:47.979Z,934.9
2019-01-30T02:04:53.855Z,934.8
2019-01-30T02:08:00.062Z,934.7
2019-01-30T02:11:06.087Z,934.6
2019-01-30T02:14:12.132Z,934.6
2019-01-30T02:17:18.082Z,934.6
2019-01-30T02:20:24.043Z,934.5
2019-01-30T02:23:30.002Z,934.5
2019-01-30T02:26:35.947Z,934.4
2019-01-30T02:29:41.834Z,934.5
2019-01-30T02:32:47.779Z,934.4
2019-01-30T02:35:53.840Z,934.4
2019-01-30T02:38:59.798Z,934.4
2019-01-30T02:42:05.759Z,934.5
2019-01-30T02:45:11.697Z,934.4
2019-01-30T02:48:17.671Z,934.3
2019-01-30T02:51:23.583Z,934.3
2019-01-30T02:54:32.256Z,934.3
2019-01-30T02:57:38.217Z,934.3
2019-01-30T03:00:44.176Z,934.1
2019-01-30T03:04:02.616Z,934.1
2019-01-30T03:07:08.583Z,934.2
2019-01-30T03:10:14.546Z,934.3
2019-01-30T03:13:20.504Z,934.3
2019-01-30T03:16:26.464Z,934.3
2019-01-30T03:19:32.447Z,934.4
2019-01-30T03:22:38.461Z,934.5
2019-01-30T03:25:44.464Z,934.5
2019-01-30T03:28:50.401Z,934.5
2019-01-30T03:31:56.523Z,934.5
2019-01-30T03:35:02.580Z,934.5
2019-01-30T03:38:08.448Z,934.4
2019-01-30T03:41:14.457Z,934.5
2019-01-30T03:44:20.506Z,934.6
2019-01-30T03:47:26.566Z,934.5
2019-01-30T03:50:32.538Z,934.4
2019-01-30T03:53:38.496Z,934.3
2019-01-30T03:56:44.376Z,934.2
2019-01-30T03:59:50.317Z,934.3
2019-01-30T04:02:56.275Z,934.3
2019-01-30T04:06:02.150Z,934.3
2019-01-30T04:09:11.366Z,934.3
2019-01-30T04:12:17.429Z,934.4
2019-01-30T04:15:23.345Z,934.3
2019-01-30T04:18:29.357Z,934.2
2019-01-30T04:21:35.308Z,934.2
2019-01-30T04:24:41.377Z,934.2
2019-01-30T04:27:47.482Z,934.2
2019-01-30T04:30:53.501Z,934.3
2019-01-30T04:33:59.553Z,934.4
2019-01-30T04:37:05.725Z,934.4
2019-01-30T04:40:11.783Z,934.5
2019-01-30T04:43:17.786Z,934.6
2019-01-30T04:46:23.709Z,934.5
2019-01-30T04:49:29.861Z,934.5
2019-01-30T04:52:35.829Z,934.5
2019-01-30T04:55:41.769Z,934.5
2019-01-30T04:58:47.735Z,934.6
2019-01-30T05:01:53.803Z,934.5
2019-01-30T05:04:59.855Z,934.6
2019-01-30T05:08:05.967Z,934.5
2019-01-30T05:11:11.979Z,934.4
2019-01-30T05:14:18.047Z,934.4
2019-01-30T05:17:24.006Z,934.4
2019-01-30T05:20:29.967Z,934.5
2019-01-30T05:23:35.917Z,934.6
2019-01-30T05:26:41.841Z,934.6
2019-01-30T05:29:47.834Z,934.7
2019-01-30T05:32:53.958Z,934.8
2019-01-30T05:35:59.964Z,934.8
2019-01-30T05:39:05.918Z,934.6
2019-01-30T05:42:11.991Z,934.6
2019-01-30T05:45:17.995Z,934.6
2019-01-30T05:48:24.006Z,934.6
2019-01-30T05:51:32.674Z,934.6
2019-01-30T05:54:38.627Z,934.5
2019-01-30T05:57:44.900Z,934.4
2019-01-30T06:00:50.810Z,934.4
2019-01-30T06:03:56.767Z,934.4
2019-01-30T06:07:02.726Z,934.3
2019-01-30T06:10:08.608Z,934.3
2019-01-30T06:13:14.594Z,934.3
2019-01-30T06:16:20.614Z,934.2
2019-01-30T06:19:26.488Z,934.3
2019-01-30T06:22:32.431Z,934.4
2019-01-30T06:25:38.389Z,934.5
2019-01-30T06:28:44.341Z,934.5
2019-01-30T06:31:50.303Z,934.6
2019-01-30T06:34:58.003Z,934.6
2019-01-30T06:38:03.958Z,934.5
2019-01-30T06:41:10.080Z,934.5
2019-01-30T06:44:16.136Z,934.5
2019-01-30T06:47:22.043Z,934.5
2019-01-30T06:50:28.156Z,934.6
2019-01-30T06:53:34.167Z,934.5
2019-01-30T06:56:40.062Z,934.5
2019-01-30T06:59:45.934Z,934.6
2019-01-30T07:02:51.944Z,934.6
2019-01-30T07:05:57.822Z,934.6
2019-01-30T07:09:03.813Z,934.6
2019-01-30T07:12:09.688Z,934.6
2019-01-30T07:15:15.833Z,934.6
2019-01-30T07:18:21.828Z,934.5
2019-01-30T07:21:27.706Z,934.5
2019-01-30T07:24:33.675Z,934.5
2019-01-30T07:27:39.828Z,934.5
2019-01-30T07:30:45.896Z,934.5
2019-01-30T07:33:52.008Z,934.5
2019-01-30T07:36:58.181Z,934.5
2019-01-30T07:40:04.187Z,934.5
2019-01-30T07:43:10.393Z,934.5
2019-01-30T07:46:16.675Z,934.6
2019-01-30T07:49:22.834Z,934.6
2019-01-30T07:52:28.949Z,934.5
2019-01-30T07:55:37.762Z,934.5
2019-01-30T07:58:43.832Z,934.5
2019-01-30T08:01:49.792Z,934.5
2019-01-30T08:04:55.712Z,934.6
2019-01-30T08:08:01.853Z,934.6
2019-01-30T08:11:08.697Z,934.6
2019-01-30T08:14:14.747Z,934.7
2019-01-30T08:17:22.255Z,934.6
2019-01-30T08:20:28.367Z,934.7
2019-01-30T08:23:34.455Z,934.6
2019-01-30T08:26:42.710Z,934.7
2019-01-30T08:29:49.362Z,934.7
2019-01-30T08:33:06.810Z,934.7
2019-01-30T08:36:13.437Z,934.6
2019-01-30T08:39:19.685Z,934.7
2019-01-30T08:42:25.693Z,934.8
2019-01-30T08:45:34.491Z,934.8
2019-01-30T08:48:41.664Z,934.7
2019-01-30T08:51:47.725Z,934.8
2019-01-30T08:54:54.626Z,934.9
2019-01-30T08:58:00.628Z,935
2019-01-30T09:01:06.774Z,934.9
2019-01-30T09:04:15.827Z,934.9
2019-01-30T09:07:22.591Z,935
2019-01-30T09:10:28.623Z,935
2019-01-30T09:13:34.884Z,935
2019-01-30T09:16:42.276Z,934.9
2019-01-30T09:19:48.268Z,934.9
2019-01-30T09:22:54.724Z,934.9
2019-01-30T09:26:00.796Z,934.8
2019-01-30T09:29:06.675Z,934.8
2019-01-30T09:32:15.462Z,934.7
2019-01-30T09:35:21.537Z,934.6
2019-01-30T09:38:27.606Z,934.7
2019-01-30T09:41:33.877Z,934.7
2019-01-30T09:44:39.945Z,934.7
2019-01-30T09:47:45.986Z,934.7
2019-01-30T09:50:54.722Z,934.6
2019-01-30T09:54:00.896Z,934.6
2019-01-30T09:57:06.926Z,934.5
2019-01-30T10:00:12.917Z,934.4
2019-01-30T10:03:18.974Z,934.4
2019-01-30T10:06:25.035Z,934.4
2019-01-30T10:09:30.996Z,934.3
2019-01-30T10:12:39.560Z,934.4
2019-01-30T10:15:45.437Z,934.3
2019-01-30T10:18:51.529Z,934.3
2019-01-30T10:21:57.487Z,934.3
2019-01-30T10:25:03.449Z,934.3
2019-01-30T10:28:17.965Z,934.3
2019-01-30T10:31:23.979Z,934.3
2019-01-30T10:34:29.936Z,934.2
2019-01-30T10:37:35.819Z,934.2
2019-01-30T10:40:41.878Z,934.2
2019-01-30T10:43:47.769Z,934.1
2019-01-30T10:46:53.772Z,934.1
2019-01-30T10:50:03.059Z,934.2
2019-01-30T10:53:08.937Z,934.2
2019-01-30T10:56:17.724Z,934.1
2019-01-30T10:59:26.591Z,934.1
2019-01-30T11:02:35.964Z,934.1
2019-01-30T11:05:45.538Z,934.2
2019-01-30T11:08:56.038Z,934.1
2019-01-30T11:12:04.138Z,934.1
2019-01-30T11:15:11.736Z,934.1
2019-01-30T11:18:20.373Z,934.1
2019-01-30T11:21:26.459Z,934.2
2019-01-30T11:24:33.706Z,934.1
2019-01-30T11:27:39.712Z,934.1
2019-01-30T11:30:45.872Z,934.1
2019-01-30T11:33:52.075Z,934
2019-01-30T11:37:11.042Z,934
2019-01-30T11:40:16.961Z,934.1
2019-01-30T11:43:22.899Z,934
2019-01-30T11:46:29.866Z,934
2019-01-30T11:49:35.871Z,934
2019-01-30T11:52:41.930Z,933.9
2019-01-30T11:55:47.826Z,933.9
2019-01-30T11:58:56.514Z,933.8
2019-01-30T12:02:02.576Z,933.8
2019-01-30T12:05:08.612Z,933.7
2019-01-30T12:08:14.701Z,933.7
2019-01-30T12:11:20.658Z,933.7
2019-01-30T12:14:26.621Z,933.7
2019-01-30T12:17:32.854Z,933.7
2019-01-30T12:20:40.049Z,933.7
2019-01-30T12:23:45.948Z,933.7
2019-01-30T12:26:51.886Z,933.7
2019-01-30T12:29:57.851Z,933.7
2019-01-30T12:33:07.020Z,933.8
2019-01-30T12:36:12.892Z,933.7
2019-01-30T12:39:19.117Z,933.7
2019-01-30T12:42:24.978Z,933.7
2019-01-30T12:45:30.964Z,933.6
2019-01-30T12:48:36.918Z,933.6
2019-01-30T12:51:43.063Z,933.6
2019-01-30T12:54:49.167Z,933.7
2019-01-30T12:57:58.313Z,933.6
2019-01-30T13:01:04.260Z,933.7
2019-01-30T13:04:10.270Z,933.6
2019-01-30T13:07:16.320Z,933.6
2019-01-30T13:10:22.498Z,933.6
2019-01-30T13:13:28.450Z,933.6
2019-01-30T13:16:34.557Z,933.6
2019-01-30T13:19:40.495Z,933.6
2019-01-30T13:22:46.386Z,933.5
2019-01-30T13:25:52.285Z,933.6
2019-01-30T13:28:58.246Z,933.6
2019-01-30T13:32:04.311Z,933.6
2019-01-30T13:35:10.268Z,933.6
2019-01-30T13:38:16.206Z,933.6
2019-01-30T13:41:22.285Z,933.6
2019-01-30T13:44:28.177Z,933.6
2019-01-30T13:47:34.209Z,933.6
2019-01-30T13:50:40.326Z,933.5
2019-01-30T13:53:46.586Z,933.6
2019-01-30T13:56:52.692Z,933.6
2019-01-30T13:59:59.236Z,933.6
2019-01-30T14:03:09.127Z,933.7
2019-01-30T14:06:16.348Z,933.6
2019-01-30T14:09:22.480Z,933.6
2019-01-30T14:12:28.553Z,933.6
2019-01-30T14:15:34.704Z,933.6
2019-01-30T14:18:40.847Z,933.6
2019-01-30T14:21:46.881Z,933.6
2019-01-30T14:24:52.892Z,933.6
2019-01-30T14:27:58.959Z,933.6
2019-01-30T14:31:04.981Z,933.5
2019-01-30T14:34:11.313Z,933.6
2019-01-30T14:37:17.548Z,933.6
2019-01-30T14:40:23.557Z,933.6
2019-01-30T14:43:30.963Z,933.6
2019-01-30T14:46:37.019Z,933.6
2019-01-30T14:49:43.221Z,933.5
2019-01-30T14:52:49.246Z,933.6
2019-01-30T14:55:55.405Z,933.6
2019-01-30T14:59:01.416Z,933.6
2019-01-30T15:02:07.478Z,933.6
2019-01-30T15:05:23.623Z,933.6
2019-01-30T15:08:29.654Z,933.7
2019-01-30T15:11:35.827Z,933.6
2019-01-30T15:14:41.728Z,933.7
2019-01-30T15:17:47.985Z,933.6
2019-01-30T15:20:53.907Z,933.7
2019-01-30T15:24:00.056Z,933.7
2019-01-30T15:27:06.108Z,933.7
2019-01-30T15:30:12.329Z,933.7
2019-01-30T15:33:18.301Z,933.8
2019-01-30T15:36:25.519Z,933.7
2019-01-30T15:39:31.409Z,933.7
2019-01-30T15:42:37.448Z,933.7
2019-01-30T15:45:54.634Z,933.7
2019-01-30T15:49:00.680Z,933.8
2019-01-30T15:52:09.968Z,933.8
2019-01-30T15:55:15.973Z,933.8
2019-01-30T15:58:22.106Z,933.8
2019-01-30T16:01:28.073Z,933.9
2019-01-30T16:04:33.994Z,933.8
2019-01-30T16:07:40.171Z,933.9
2019-01-30T16:10:48.955Z,934
2019-01-30T16:13:54.958Z,933.9
2019-01-30T16:17:01.019Z,934
2019-01-30T16:20:07.003Z,933.9
2019-01-30T16:23:13.169Z,934
2019-01-30T16:26:19.058Z,934
2019-01-30T16:29:24.989Z,934
2019-01-30T16:32:30.863Z,934
2019-01-30T16:35:36.777Z,934
2019-01-30T16:38:42.754Z,934.1
2019-01-30T16:41:48.793Z,934
2019-01-30T16:44:54.858Z,934.1
2019-01-30T16:48:00.920Z,934
2019-01-30T16:51:06.798Z,934.1
2019-01-30T16:54:12.738Z,934.2
2019-01-30T16:57:18.846Z,934.2
2019-01-30T17:00:24.858Z,934.2
2019-01-30T17:03:30.817Z,934.2
2019-01-30T17:06:36.705Z,934.2
2019-01-30T17:09:45.712Z,934.2
2019-01-30T17:12:51.593Z,934.2
2019-01-30T17:16:00.412Z,934.2
2019-01-30T17:19:06.287Z,934.2
2019-01-30T17:22:12.206Z,934.2
2019-01-30T17:25:18.256Z,934.3
2019-01-30T17:28:24.283Z,934.3
2019-01-30T17:31:30.403Z,934.4
2019-01-30T17:34:36.278Z,934.4
2019-01-30T17:37:42.211Z,934.4
2019-01-30T17:40:48.424Z,934.4
2019-01-30T17:43:54.339Z,934.5
2019-01-30T17:47:00.297Z,934.5
2019-01-30T17:50:06.243Z,934.5
2019-01-30T17:53:12.214Z,934.5
2019-01-30T17:56:18.213Z,934.6
2019-01-30T17:59:24.274Z,934.6
2019-01-30T18:02:30.397Z,934.6
2019-01-30T18:05:36.507Z,934.6
2019-01-30T18:08:42.523Z,934.7
2019-01-30T18:11:48.406Z,934.7
2019-01-30T18:14:54.442Z,934.7
2019-01-30T18:18:00.499Z,934.7
2019-01-30T18:21:06.379Z,934.7
2019-01-30T18:24:12.316Z,934.8
2019-01-30T18:27:18.387Z,934.7
2019-01-30T18:30:24.365Z,934.7
2019-01-30T18:33:30.358Z,934.8
2019-01-30T18:36:42.530Z,934.8
2019-01-30T18:39:50.945Z,934.8
2019-01-30T18:42:56.906Z,934.9
2019-01-30T18:46:02.843Z,934.9
2019-01-30T18:49:08.805Z,934.9
2019-01-30T18:52:14.864Z,934.9
2019-01-30T18:55:23.768Z,934.9
2019-01-30T18:58:29.752Z,934.9
2019-01-30T19:01:35.712Z,935
2019-01-30T19:04:41.593Z,934.9
2019-01-30T19:07:47.732Z,935
2019-01-30T19:10:53.777Z,935.1
2019-01-30T19:13:59.958Z,935.1
2019-01-30T19:17:06.025Z,935.1
2019-01-30T19:20:11.980Z,935.2
2019-01-30T19:23:17.940Z,935.2
2019-01-30T19:26:23.899Z,935.2
2019-01-30T19:29:29.859Z,935.2
2019-01-30T19:32:35.818Z,935.3
2019-01-30T19:35:41.884Z,935.2
2019-01-30T19:38:47.947Z,935.3
2019-01-30T19:41:53.910Z,935.3
2019-01-30T19:44:59.868Z,935.3
2019-01-30T19:48:05.748Z,935.3
2019-01-30T19:51:11.689Z,935.4
2019-01-30T19:54:17.760Z,935.4
2019-01-30T19:57:23.671Z,935.5
2019-01-30T20:00:29.773Z,935.5
2019-01-30T20:03:35.832Z,935.5
2019-01-30T20:06:41.726Z,935.5
2019-01-30T20:09:47.822Z,935.5
2019-01-30T20:12:53.812Z,935.6
2019-01-30T20:15:59.748Z,935.6
2019-01-30T20:19:05.730Z,935.6
2019-01-30T20:22:11.797Z,935.6
2019-01-30T20:25:17.856Z,935.6
2019-01-30T20:28:23.740Z,935.6
2019-01-30T20:31:29.665Z,935.6
2019-01-30T20:34:35.622Z,935.6
2019-01-30T20:37:41.611Z,935.6
2019-01-30T20:40:47.556Z,935.7
2019-01-30T20:43:53.472Z,935.7
2019-01-30T20:46:59.575Z,935.6
2019-01-30T20:50:05.478Z,935.7
2019-01-30T20:53:11.540Z,935.7
2019-01-30T20:56:17.654Z,935.7
2019-01-30T20:59:23.714Z,935.6
2019-01-30T21:02:29.673Z,935.7
2019-01-30T21:05:35.639Z,935.7
2019-01-30T21:08:41.596Z,935.7
2019-01-30T21:11:47.551Z,935.7
2019-01-30T21:14:56.173Z,935.6
2019-01-30T21:18:02.130Z,935.7
2019-01-30T21:21:08.215Z,935.7
2019-01-30T21:24:17.020Z,935.7
2019-01-30T21:27:23.186Z,935.7
2019-01-30T21:30:29.071Z,935.6
2019-01-30T21:33:35.001Z,935.7
2019-01-30T21:36:41.066Z,935.7
2019-01-30T21:39:46.941Z,935.7
2019-01-30T21:42:52.921Z,935.7
2019-01-30T21:45:58.850Z,935.7
2019-01-30T21:49:04.723Z,935.7
2019-01-30T21:52:10.809Z,935.7
2019-01-30T21:55:16.697Z,935.7
2019-01-30T21:58:22.698Z,935.8
2019-01-30T22:01:28.619Z,935.7
2019-01-30T22:04:34.653Z,935.7
2019-01-30T22:07:40.557Z,935.7
2019-01-30T22:10:46.722Z,935.7
2019-01-30T22:13:52.681Z,935.7
2019-01-30T22:17:01.344Z,935.7
2019-01-30T22:20:07.263Z,935.7
2019-01-30T22:23:13.225Z,935.7
2019-01-30T22:26:19.291Z,935.7
2019-01-30T22:29:25.407Z,935.6
2019-01-30T22:32:31.278Z,935.6
2019-01-30T22:35:37.291Z,935.6
2019-01-30T22:38:43.151Z,935.5
2019-01-30T22:41:49.108Z,935.5
2019-01-30T22:44:55.067Z,935.5
2019-01-30T22:48:01.025Z,935.5
2019-01-30T22:51:07.067Z,935.5
2019-01-30T22:54:13.005Z,935.5
2019-01-30T22:57:18.933Z,935.5
2019-01-30T23:00:25.005Z,935.4
2019-01-30T23:03:33.285Z,935.4
2019-01-30T23:06:39.247Z,935.3
2019-01-30T23:09:45.290Z,935.3
2019-01-30T23:12:51.249Z,935.3
2019-01-30T23:15:57.240Z,935.5
2019-01-30T23:19:03.157Z,935.5
2019-01-30T23:22:09.040Z,935.4
2019-01-30T23:25:14.974Z,935.4
2019-01-30T23:28:23.699Z,935.3
2019-01-30T23:31:29.852Z,935.3
2019-01-30T23:34:35.858Z,935.3
2019-01-30T23:37:41.783Z,935.3
2019-01-30T23:40:47.844Z,935.4
2019-01-30T23:43:53.763Z,935.3
2019-01-30T23:46:59.771Z,935.3
2019-01-30T23:50:05.707Z,935.4
2019-01-30T23:53:11.693Z,935.3
2019-01-30T23:56:17.648Z,935.3
2019-01-30T23:59:23.601Z,935.3
